Terminal Aerodrome Forecast
Issued by NWS

Home | Current Version | Previous Version | Text Only | Print | Product List | Glossary On
Versions: 1 2 3 4 5 6 7 8 9 10 11 12 13 14 15 16 17 18 19 20 21 22 23 24 25 26 27
000
FTUS46 KOTX 111515 AAA
TAFSFF
TAF AMD
KSFF 111515Z 1115/1212 00000KT 1/4SM FG VV002
      TEMPO 1115/1117 1SM BR SCT002
     FM111800 VRB03KT 6SM BR SCT006 BKN012
     FM112000 06004KT P6SM SCT025 OVC050
     FM120100 VRB02KT P6SM -RA BKN025 OVC050=

USA.gov is the U.S. government's official web portal to all federal, state and local government web resources and services.